This is the latest recevied weather packets stored in our database for station/object N0ZO-13. If no packets are shown the sender has not sent any weather packets the latest 10 day(s).
| Time | Temp. | Humidity | Pressure | Rain* | Wind** | Luminosity | Snow |
|---|---|---|---|---|---|---|---|
| 1777550783 | 16.11° C | 95% | 1007 hPa | 0 mm | - | 0 W/m² | - |
| 1777550175 | 16.11° C | 94% | 1006.9 hPa | 0 mm | - | 0 W/m² | - |
| 1777547776 | 16.11° C | 94% | 1006.2 hPa | 0 mm | - | 0 W/m² | - |
| 1777547182 | 16.11° C | 94% | 1006.2 hPa | 0 mm | - | 0 W/m² | - |
| 1777546575 | 16.11° C | 94% | 1006.2 hPa | 0 mm | - | 0 W/m² | - |
| 1777545983 | 16.11° C | 94% | 1006.6 hPa | 0 mm | - | 0 W/m² | - |
| 1777544190 | 16.11° C | 94% | 1006.3 hPa | 0 mm | - | 0 W/m² | - |
| 1777541776 | 16.67° C | 95% | 1006.2 hPa | 0 mm | - | 0 W/m² | - |
| 1777540577 | 16.67° C | 95% | 1006 hPa | 0 mm | - | 0 W/m² | - |
| 1777536384 | 17.78° C | 98% | 1005.4 hPa | 0 mm | - | 0 W/m² | - |
| 1777534590 | 17.78° C | 97% | 1005.1 hPa | 0 mm | - | 0 W/m² | - |
| 1777533982 | 17.78° C | 97% | 1004.8 hPa | 0 mm | - | 0 W/m² | - |
| 1777530989 | 18.33° C | 97% | 1005.5 hPa | 0 mm | - | 0 W/m² | - |
| 1777527982 | 18.33° C | 97% | 1006.4 hPa | 0 mm | - | 0 W/m² | - |
| 1777527410 | 18.33° C | 96% | 1006.7 hPa | 0 mm | - | 0 W/m² | - |
| 1777526825 | 18.33° C | 96% | 1006.8 hPa | 0 mm | - | 0 W/m² | - |
| 1777525586 | 18.33° C | 96% | 1006.8 hPa | 0 mm | - | 0 W/m² | - |
| 1777524980 | 18.89° C | 96% | 1006.6 hPa | 0 mm | - | 0 W/m² | - |
| 1777523782 | 18.89° C | 95% | 1007 hPa | 0 mm | - | 0 W/m² | - |
| 1777521978 | 18.89° C | 94% | 1006.3 hPa | 0.76 mm | - | 0 W/m² | - |
| 1777517802 | 21.67° C | 91% | 1008.7 hPa | 0 mm | - | 0 W/m² | - |
| 1777512390 | 22.78° C | 93% | 1005.7 hPa | 0 mm | - | 0 W/m² | - |
| 1777502778 | 25.56° C | 86% | 1005.6 hPa | 0 mm | - | 0 W/m² | - |
| 1777499788 | 26.11° C | 83% | 1005.7 hPa | 0 mm | - | 0 W/m² | - |
| 1777499182 | 26.67° C | 82% | 1006.1 hPa | 0 mm | - | 0 W/m² | - |
* Rain latest hour (hover to see other rain measurements)
** Current wind speed in m/s (hover to see current wind gust speed)